• Join FlightAware (Why Join?)
  • Login
  • US Flag 
03:21PM EDT


 

Airport Tracker/Info


-or-


 

Live Flight TrackerFlight Track Log ✈ SWA449 ✈ 06-May-2012 ✈ KLAS - KDEN

Flight Track Log - Related Links

Times and Time Zones

All times are in EDT time to prevent confusion due to time zone crossing. See the SWA449 flight status page for this flight to view local times or setup timezone preferences in your user account.

Time Position Orientation Groundspeed Altitude Reporting Facility
EDT Latitude Longitude Course Direction KTS MPH feet Rate Location/Type
11:39PM 36.1058 -115.1522 78° East 172 198 3,100  Level Los Angeles Center
11:44PM 36.1906 -114.6572 91° East 331 381 17,800 2,700 Climbing Los Angeles Center
11:46PM 36.1886 -114.5028 87° East 354 407 21,300 2,760 Climbing Los Angeles Center
11:47PM 36.1947 -114.3406 70° East 376 433 24,500 2,580 Climbing Los Angeles Center
11:48PM 36.2344 -114.2083 66° East 391 450 26,600 1,980 Climbing Los Angeles Center
11:49PM 36.2825 -114.0733 66° East 403 464 28,500 1,800 Climbing Los Angeles Center
11:50PM 36.3322 -113.9353 67° East 421 484 30,200 1,620 Climbing Los Angeles Center
11:51PM 36.3817 -113.7922 67° East 433 498 31,800 1,740 Climbing Los Angeles Center
11:52PM 36.4308 -113.6461 66° East 445 512 33,700 1,680 Climbing Los Angeles Center
11:53PM 36.4822 -113.5025 67° East 445 512 35,300 1,320 Climbing Los Angeles Center
11:54PM 36.5272 -113.3692 67° East 445 512 36,400 1,080 Climbing Los Angeles Center
11:55PM 36.5819 -113.2072 67° East 451 519 37,500 1,200 Climbing Los Angeles Center
11:56PM 36.6325 -113.0578 68° East 457 526 38,900 720 Climbing Los Angeles Center
11:57PM 36.6808 -112.9083 67° East 462 532 39,000  Climbing Los Angeles Center
11:58PM 36.7308 -112.7586 68° East 462 532 39,000  Level Los Angeles Center
11:59PM 36.7808 -112.6061 68° East 462 532 39,000  Level Los Angeles Center
12:00AM 36.8306 -112.4533 68° East 462 532 39,000  Level Los Angeles Center
12:01AM 36.8783 -112.3058 68° East 462 532 39,000  Level Los Angeles Center
12:02AM 36.9608 -112.0533 68° East 483 556 39,000  Level Denver Center
12:03AM 37.0100 -111.9011 68° East 483 556 39,000  Level Denver Center
12:04AM 37.0589 -111.7489 65° Northeast 483 556 39,000  Level Denver Center
12:05AM 37.1156 -111.5994 64° Northeast 478 550 39,000  Level Denver Center
12:06AM 37.1792 -111.4369 64° Northeast 473 544 39,000  Level Denver Center
12:07AM 37.2378 -111.2872 64° Northeast 473 544 39,000  Level Denver Center
12:08AM 37.2961 -111.1372 64° Northeast 473 544 39,000  Level Denver Center
12:09AM 37.3542 -110.9894 62° Northeast 473 544 39,000  Level Denver Center
12:10AM 37.4142 -110.8442 64° Northeast 473 544 39,000  Level Denver Center
12:11AM 37.4697 -110.6986 64° Northeast 468 539 39,000  Level Denver Center
12:12AM 37.5272 -110.5500 60° Northeast 468 539 39,000  Level Denver Center
12:13AM 37.5928 -110.4044 65° Northeast 461 531 39,000  Level Denver Center
12:14AM 37.6478 -110.2581 64° Northeast 466 536 39,000  Level Denver Center
12:15AM 37.7069 -110.1064 64° Northeast 466 536 39,000  Level Denver Center
12:16AM 37.7592 -109.9725 65° Northeast 474 545 39,000  Level Denver Center
12:17AM 37.8203 -109.8100 64° Northeast 474 545 39,000  Level Denver Center
12:18AM 37.8789 -109.6550 64° Northeast 474 545 39,000  Level Denver Center
12:19AM 37.9372 -109.5050 66° East 479 551 39,000  Level Denver Center
12:20AM 37.9869 -109.3647 65° Northeast 479 551 39,000  Level Denver Center
12:21AM 38.0494 -109.1958 65° Northeast 479 551 39,000  Level Denver Center
12:22AM 38.1050 -109.0425 65° Northeast 472 543 39,000  Level Denver Center
12:23AM 38.1561 -108.9044 65° Northeast 472 543 39,000  Level Denver Center
12:24AM 38.2136 -108.7478 65° Northeast 472 543 39,000  Level Denver Center
12:25AM 38.2753 -108.5778 65° Northeast 481 554 39,000  Level Denver Center
12:26AM 38.3300 -108.4261 65° Northeast 476 548 39,000  Level Denver Center
12:27AM 38.3825 -108.2844 66° East 483 556 39,000  Level Denver Center
12:28AM 38.4433 -108.1111 65° Northeast 484 557 39,000  Level Denver Center
12:29AM 38.4997 -107.9586 66° East 484 557 39,000  Level Denver Center
12:30AM 38.5539 -107.8006 66° East 475 547 39,000  Level Denver Center
12:31AM 38.6033 -107.6606 65° Northeast 480 552 39,000  Level Denver Center
12:32AM 38.6653 -107.4889 66° East 480 552 39,000  Level Denver Center
12:33AM 38.7189 -107.3353 66° East 480 552 39,000 -360 Level Denver Center
12:34AM 38.7697 -107.1919 66° East 480 552 38,300 -840 Descending Denver Center
12:35AM 38.8250 -107.0328 66° East 485 558 37,400 -1,020 Descending Denver Center
12:36AM 38.8861 -106.8544 66° East 485 558 36,300 -1,020 Descending Denver Center
12:37AM 38.9408 -106.6975 66° East 485 558 35,400 -900 Descending Denver Center
12:38AM 38.9889 -106.5586 68° East 474 545 34,500 -1,200 Descending Denver Center
12:39AM 39.0411 -106.3931 66° East 481 554 33,000 -2,160 Descending Denver Center
12:40AM 39.1033 -106.2136 67° East 492 566 30,200 -2,280 Descending Denver Center
12:41AM 39.1592 -106.0447 67° East 502 578 28,500 -2,100 Descending Denver Center
12:42AM 39.2128 -105.8836 67° East 494 568 26,000 -2,580 Descending Denver Center
12:43AM 39.2658 -105.7222 57° Northeast 489 563 23,400 -2,580 Descending Denver Center
12:44AM 39.3339 -105.5847 57° Northeast 466 536 20,900 -2,220 Descending Denver Center
12:45AM 39.3953 -105.4631 91° East 454 522 19,000 -1,140 Descending Denver Center
12:46AM 39.3939 -105.3153 91° East 405 466 18,700 -720 Descending Denver Center
12:47AM 39.3925 -105.1728 90° East 398 458 17,600 -1,560 Descending Denver Center
12:48AM 39.3928 -105.0303 70° East 398 458 15,600 -1,800 Descending Denver Center
12:49AM 39.4286 -104.9006 67° East 388 447 14,000 -1,320 Descending Denver Center
12:50AM 39.4667 -104.7833 63° Northeast 315 362 13,000 -900 Descending Denver TRACON
12:51AM 39.5000 -104.7000 21° North 271 312 12,300 -840 Descending Denver TRACON
12:52AM 39.5667 -104.6667 360° North 259 298 11,400 -1,020 Descending Denver TRACON
12:53AM 39.6333 -104.6667 360° North 227 261 10,300 -1,680 Descending Denver TRACON
12:54AM 39.6833 -104.6667 360° North 229 264 8,400 -1,680 Descending Denver TRACON
12:55AM 39.7333 -104.6667 360° North 194 223 7,300 -1,200 Descending Denver TRACON
12:56AM 39.7833 -104.6667 360° North 148 170 6,200 -1,260 Descending Denver TRACON
01:03AM 39.8500 -104.6667 337° Northwest  Level FlightAware Approximate
01:04AM 39.9676 -104.7322 157° South  Level Estimated
01:05AM 39.8500 -104.6667 337° Northwest  Level FlightAware Approximate
01:06AM 39.9676 -104.7322 337° Northwest  Level Estimated